sensor_id;sensor_type;location;lat;lon;timestamp;pressure;altitude;pressure_sealevel;temperature;humidity
41044;BME280;51680;49.806;18.774;2023-03-12T00:01:11;96781.34;;;2.60;73.31
41044;BME280;51680;49.806;18.774;2023-03-12T00:04:12;96788.91;;;2.64;73.25
41044;BME280;51680;49.806;18.774;2023-03-12T00:07:15;96793.91;;;2.67;73.02
41044;BME280;51680;49.806;18.774;2023-03-12T00:10:19;96798.94;;;2.70;73.13
41044;BME280;51680;49.806;18.774;2023-03-12T00:13:20;96797.00;;;2.75;72.83
41044;BME280;51680;49.806;18.774;2023-03-12T00:16:22;96796.03;;;2.78;72.43
41044;BME280;51680;49.806;18.774;2023-03-12T00:19:24;96806.22;;;2.81;72.76
41044;BME280;51680;49.806;18.774;2023-03-12T00:22:27;96805.31;;;2.82;72.55
41044;BME280;51680;49.806;18.774;2023-03-12T00:25:29;96800.97;;;2.82;72.47
41044;BME280;51680;49.806;18.774;2023-03-12T00:28:31;96810.44;;;2.82;72.48
41044;BME280;51680;49.806;18.774;2023-03-12T00:31:34;96813.09;;;2.80;72.63
41044;BME280;51680;49.806;18.774;2023-03-12T00:34:36;96820.69;;;2.83;72.72
41044;BME280;51680;49.806;18.774;2023-03-12T00:37:39;96820.56;;;2.86;72.47
41044;BME280;51680;49.806;18.774;2023-03-12T00:40:41;96821.34;;;2.88;72.20
41044;BME280;51680;49.806;18.774;2023-03-12T00:43:42;96813.34;;;2.94;72.18
41044;BME280;51680;49.806;18.774;2023-03-12T00:46:44;96815.41;;;2.86;71.94
41044;BME280;51680;49.806;18.774;2023-03-12T00:49:46;96816.50;;;2.81;71.99
41044;BME280;51680;49.806;18.774;2023-03-12T00:52:49;96815.66;;;2.80;71.80
41044;BME280;51680;49.806;18.774;2023-03-12T00:55:51;96828.59;;;2.79;71.41
41044;BME280;51680;49.806;18.774;2023-03-12T00:58:52;96824.31;;;2.79;71.50
41044;BME280;51680;49.806;18.774;2023-03-12T01:01:54;96835.31;;;2.83;71.44
41044;BME280;51680;49.806;18.774;2023-03-12T01:04:56;96836.22;;;2.82;71.41
41044;BME280;51680;49.806;18.774;2023-03-12T01:08:00;96841.44;;;2.80;71.44
41044;BME280;51680;49.806;18.774;2023-03-12T01:11:02;96830.59;;;2.72;71.30
41044;BME280;51680;49.806;18.774;2023-03-12T01:14:06;96847.13;;;2.68;71.08
41044;BME280;51680;49.806;18.774;2023-03-12T01:17:08;96844.13;;;2.57;71.07
41044;BME280;51680;49.806;18.774;2023-03-12T01:20:10;96839.81;;;2.58;71.21
41044;BME280;51680;49.806;18.774;2023-03-12T01:23:14;96831.91;;;2.62;71.36
41044;BME280;51680;49.806;18.774;2023-03-12T01:26:16;96837.03;;;2.62;71.22
41044;BME280;51680;49.806;18.774;2023-03-12T01:29:18;96832.03;;;2.59;71.28
41044;BME280;51680;49.806;18.774;2023-03-12T01:32:20;96824.81;;;2.47;71.24
41044;BME280;51680;49.806;18.774;2023-03-12T01:35:22;96834.47;;;2.42;71.55
41044;BME280;51680;49.806;18.774;2023-03-12T01:38:25;96824.06;;;2.45;71.79
41044;BME280;51680;49.806;18.774;2023-03-12T01:41:28;96825.84;;;2.43;71.78
41044;BME280;51680;49.806;18.774;2023-03-12T01:44:48;96827.31;;;2.49;71.31
41044;BME280;51680;49.806;18.774;2023-03-12T01:47:50;96842.84;;;2.47;71.67
41044;BME280;51680;49.806;18.774;2023-03-12T01:50:52;96834.19;;;2.48;71.36
41044;BME280;51680;49.806;18.774;2023-03-12T01:53:59;96834.84;;;2.33;70.93
41044;BME280;51680;49.806;18.774;2023-03-12T01:57:03;96841.19;;;2.25;71.49
41044;BME280;51680;49.806;18.774;2023-03-12T02:00:10;96847.19;;;2.25;71.39
41044;BME280;51680;49.806;18.774;2023-03-12T02:03:16;96849.22;;;2.17;71.35
41044;BME280;51680;49.806;18.774;2023-03-12T02:06:22;96858.22;;;2.07;71.38
41044;BME280;51680;49.806;18.774;2023-03-12T02:09:27;96862.16;;;1.94;71.22
41044;BME280;51680;49.806;18.774;2023-03-12T02:12:30;96862.66;;;1.82;71.34
41044;BME280;51680;49.806;18.774;2023-03-12T02:15:33;96863.34;;;1.64;71.45
41044;BME280;51680;49.806;18.774;2023-03-12T02:18:35;96862.13;;;1.51;71.34
41044;BME280;51680;49.806;18.774;2023-03-12T02:21:38;96857.31;;;1.42;71.12
41044;BME280;51680;49.806;18.774;2023-03-12T02:24:44;96869.78;;;1.30;71.11
41044;BME280;51680;49.806;18.774;2023-03-12T02:27:48;96859.88;;;1.19;71.21
41044;BME280;51680;49.806;18.774;2023-03-12T02:30:51;96870.16;;;1.19;71.41
41044;BME280;51680;49.806;18.774;2023-03-12T02:33:54;96869.38;;;1.17;71.59
41044;BME280;51680;49.806;18.774;2023-03-12T02:36:57;96875.47;;;1.15;71.69
41044;BME280;51680;49.806;18.774;2023-03-12T02:40:04;96878.75;;;1.18;71.26
41044;BME280;51680;49.806;18.774;2023-03-12T02:43:10;96878.75;;;1.18;71.21
41044;BME280;51680;49.806;18.774;2023-03-12T02:46:12;96892.41;;;1.20;71.26
41044;BME280;51680;49.806;18.774;2023-03-12T02:49:33;96895.34;;;1.10;71.29
41044;BME280;51680;49.806;18.774;2023-03-12T02:52:35;96897.34;;;1.02;71.04
41044;BME280;51680;49.806;18.774;2023-03-12T02:55:37;96899.22;;;0.97;71.33
41044;BME280;51680;49.806;18.774;2023-03-12T02:58:41;96900.06;;;0.97;70.99
41044;BME280;51680;49.806;18.774;2023-03-12T03:01:44;96901.53;;;1.04;71.34
41044;BME280;51680;49.806;18.774;2023-03-12T03:04:46;96905.16;;;0.99;71.09
41044;BME280;51680;49.806;18.774;2023-03-12T03:07:48;96902.91;;;0.90;71.30
41044;BME280;51680;49.806;18.774;2023-03-12T03:10:50;96903.94;;;0.84;71.20
41044;BME280;51680;49.806;18.774;2023-03-12T03:13:55;96904.38;;;0.72;71.71
41044;BME280;51680;49.806;18.774;2023-03-12T03:16:57;96913.19;;;0.63;72.00
41044;BME280;51680;49.806;18.774;2023-03-12T03:19:59;96921.53;;;0.70;71.98
41044;BME280;51680;49.806;18.774;2023-03-12T03:23:01;96926.47;;;0.76;71.65
41044;BME280;51680;49.806;18.774;2023-03-12T03:26:04;96932.75;;;0.68;71.88
41044;BME280;51680;49.806;18.774;2023-03-12T03:29:07;96932.16;;;0.59;72.22
41044;BME280;51680;49.806;18.774;2023-03-12T03:32:09;96944.16;;;0.59;72.19
41044;BME280;51680;49.806;18.774;2023-03-12T03:35:11;96948.59;;;0.54;72.16
41044;BME280;51680;49.806;18.774;2023-03-12T03:38:13;96947.72;;;0.55;72.34
41044;BME280;51680;49.806;18.774;2023-03-12T03:41:16;96954.53;;;0.56;72.53
41044;BME280;51680;49.806;18.774;2023-03-12T03:44:19;96956.31;;;0.54;72.32
41044;BME280;51680;49.806;18.774;2023-03-12T03:47:23;96959.09;;;0.48;72.58
41044;BME280;51680;49.806;18.774;2023-03-12T03:50:25;96964.22;;;0.48;72.48
41044;BME280;51680;49.806;18.774;2023-03-12T03:53:27;96963.31;;;0.49;72.29
41044;BME280;51680;49.806;18.774;2023-03-12T03:56:29;96954.72;;;0.50;72.68
41044;BME280;51680;49.806;18.774;2023-03-12T03:59:34;96951.56;;;0.42;72.33
41044;BME280;51680;49.806;18.774;2023-03-12T04:02:36;96958.34;;;0.43;72.57
41044;BME280;51680;49.806;18.774;2023-03-12T04:05:38;96948.28;;;0.37;72.37
41044;BME280;51680;49.806;18.774;2023-03-12T04:08:45;96954.50;;;0.30;72.35
41044;BME280;51680;49.806;18.774;2023-03-12T04:11:49;96961.59;;;0.22;72.80
41044;BME280;51680;49.806;18.774;2023-03-12T04:14:52;96955.56;;;0.23;72.64
41044;BME280;51680;49.806;18.774;2023-03-12T04:17:54;96965.19;;;0.16;72.51
41044;BME280;51680;49.806;18.774;2023-03-12T04:20:57;96957.47;;;0.16;72.78
41044;BME280;51680;49.806;18.774;2023-03-12T04:23:59;96953.91;;;0.22;72.38
41044;BME280;51680;49.806;18.774;2023-03-12T04:27:05;96967.63;;;0.21;72.20
41044;BME280;51680;49.806;18.774;2023-03-12T04:30:10;96969.13;;;-0.01;72.39
41044;BME280;51680;49.806;18.774;2023-03-12T04:33:12;96965.75;;;-0.02;72.21
41044;BME280;51680;49.806;18.774;2023-03-12T04:36:14;96967.53;;;-0.05;72.48
41044;BME280;51680;49.806;18.774;2023-03-12T04:39:19;96962.25;;;0.01;72.57
41044;BME280;51680;49.806;18.774;2023-03-12T04:42:23;96973.09;;;0.09;72.38
41044;BME280;51680;49.806;18.774;2023-03-12T04:45:27;96979.47;;;0.25;71.76
41044;BME280;51680;49.806;18.774;2023-03-12T04:48:30;96978.53;;;0.28;71.67
41044;BME280;51680;49.806;18.774;2023-03-12T04:51:32;96992.44;;;0.20;71.88
41044;BME280;51680;49.806;18.774;2023-03-12T04:54:36;96991.69;;;0.17;71.92
41044;BME280;51680;49.806;18.774;2023-03-12T04:57:38;97000.13;;;0.20;72.05
41044;BME280;51680;49.806;18.774;2023-03-12T05:00:41;96996.75;;;0.20;72.83
41044;BME280;51680;49.806;18.774;2023-03-12T05:03:44;97001.03;;;0.19;72.83
41044;BME280;51680;49.806;18.774;2023-03-12T05:06:45;97010.44;;;0.19;72.67
41044;BME280;51680;49.806;18.774;2023-03-12T05:09:47;97007.28;;;0.11;73.09
41044;BME280;51680;49.806;18.774;2023-03-12T05:12:50;97014.25;;;0.06;73.27
41044;BME280;51680;49.806;18.774;2023-03-12T05:15:54;97010.66;;;0.11;73.25
41044;BME280;51680;49.806;18.774;2023-03-12T05:18:56;97002.72;;;0.48;72.98
41044;BME280;51680;49.806;18.774;2023-03-12T05:21:59;97010.16;;;1.08;71.22
41044;BME280;51680;49.806;18.774;2023-03-12T05:25:01;97006.47;;;1.88;69.26
41044;BME280;51680;49.806;18.774;2023-03-12T05:28:03;96996.41;;;2.71;66.78
41044;BME280;51680;49.806;18.774;2023-03-12T05:31:09;96996.88;;;3.42;64.35
41044;BME280;51680;49.806;18.774;2023-03-12T05:34:12;96990.44;;;4.09;62.41
41044;BME280;51680;49.806;18.774;2023-03-12T05:37:16;96996.28;;;4.68;60.86
41044;BME280;51680;49.806;18.774;2023-03-12T05:40:21;97006.16;;;5.13;58.94
41044;BME280;51680;49.806;18.774;2023-03-12T05:43:23;97001.00;;;5.64;57.33
41044;BME280;51680;49.806;18.774;2023-03-12T05:46:27;97004.81;;;6.06;56.06
41044;BME280;51680;49.806;18.774;2023-03-12T05:49:29;97005.69;;;6.38;51.38
41044;BME280;51680;49.806;18.774;2023-03-12T05:52:32;97021.59;;;7.09;53.81
41044;BME280;51680;49.806;18.774;2023-03-12T05:55:34;97017.00;;;7.58;53.27
41044;BME280;51680;49.806;18.774;2023-03-12T05:58:37;97016.50;;;8.24;51.84
41044;BME280;51680;49.806;18.774;2023-03-12T06:01:40;97019.78;;;8.82;49.63
41044;BME280;51680;49.806;18.774;2023-03-12T06:04:43;97017.03;;;9.24;48.43
41044;BME280;51680;49.806;18.774;2023-03-12T06:07:44;97034.41;;;10.14;47.35
41044;BME280;51680;49.806;18.774;2023-03-12T06:10:49;97033.78;;;10.61;45.29
41044;BME280;51680;49.806;18.774;2023-03-12T06:13:51;97034.06;;;10.56;45.31
41044;BME280;51680;49.806;18.774;2023-03-12T06:16:54;97034.72;;;10.96;44.32
41044;BME280;51680;49.806;18.774;2023-03-12T06:19:57;97033.69;;;11.69;44.18
41044;BME280;51680;49.806;18.774;2023-03-12T06:22:59;97034.66;;;12.13;42.55
41044;BME280;51680;49.806;18.774;2023-03-12T06:26:01;97041.38;;;12.50;41.90
41044;BME280;51680;49.806;18.774;2023-03-12T06:29:03;97047.31;;;13.18;40.85
41044;BME280;51680;49.806;18.774;2023-03-12T06:32:07;97044.94;;;14.30;40.13
41044;BME280;51680;49.806;18.774;2023-03-12T06:35:09;97048.56;;;14.89;38.66
41044;BME280;51680;49.806;18.774;2023-03-12T06:38:11;97044.31;;;15.37;38.38
41044;BME280;51680;49.806;18.774;2023-03-12T06:41:31;97048.44;;;16.54;37.13
41044;BME280;51680;49.806;18.774;2023-03-12T06:44:33;97052.94;;;17.07;36.09
41044;BME280;51680;49.806;18.774;2023-03-12T06:47:36;97056.00;;;17.66;34.66
41044;BME280;51680;49.806;18.774;2023-03-12T06:50:38;97058.34;;;18.48;34.43
41044;BME280;51680;49.806;18.774;2023-03-12T06:53:40;97069.75;;;19.25;33.39
41044;BME280;51680;49.806;18.774;2023-03-12T06:56:41;97074.16;;;19.50;32.94
41044;BME280;51680;49.806;18.774;2023-03-12T06:59:43;97070.84;;;20.21;31.83
41044;BME280;51680;49.806;18.774;2023-03-12T07:02:46;97075.94;;;20.95;30.74
41044;BME280;51680;49.806;18.774;2023-03-12T07:05:49;97075.22;;;21.94;29.31
41044;BME280;51680;49.806;18.774;2023-03-12T07:08:51;97080.31;;;21.73;29.43
41044;BME280;51680;49.806;18.774;2023-03-12T07:11:53;97073.09;;;22.34;28.96
41044;BME280;51680;49.806;18.774;2023-03-12T07:14:55;97086.56;;;22.33;28.22
41044;BME280;51680;49.806;18.774;2023-03-12T07:17:59;97080.63;;;22.53;26.56
41044;BME280;51680;49.806;18.774;2023-03-12T07:21:02;97079.72;;;22.38;28.04
41044;BME280;51680;49.806;18.774;2023-03-12T07:24:05;97079.00;;;22.44;27.66
41044;BME280;51680;49.806;18.774;2023-03-12T07:27:07;97087.56;;;21.48;28.27
41044;BME280;51680;49.806;18.774;2023-03-12T07:30:10;97081.28;;;21.80;27.69
41044;BME280;51680;49.806;18.774;2023-03-12T07:33:13;97085.25;;;22.29;26.29
41044;BME280;51680;49.806;18.774;2023-03-12T07:36:15;97087.34;;;21.11;27.92
41044;BME280;51680;49.806;18.774;2023-03-12T07:39:17;97099.44;;;19.94;29.02
41044;BME280;51680;49.806;18.774;2023-03-12T07:42:19;97096.19;;;18.30;30.38
41044;BME280;51680;49.806;18.774;2023-03-12T07:45:22;97104.75;;;16.62;31.69
41044;BME280;51680;49.806;18.774;2023-03-12T07:48:25;97100.66;;;17.23;30.84
41044;BME280;51680;49.806;18.774;2023-03-12T07:51:27;97094.25;;;16.89;31.68
41044;BME280;51680;49.806;18.774;2023-03-12T07:54:29;97098.63;;;17.89;31.07
41044;BME280;51680;49.806;18.774;2023-03-12T07:57:31;97086.22;;;19.19;29.33
41044;BME280;51680;49.806;18.774;2023-03-12T08:00:33;97087.66;;;19.80;28.77
41044;BME280;51680;49.806;18.774;2023-03-12T08:03:36;97080.56;;;20.77;27.10
41044;BME280;51680;49.806;18.774;2023-03-12T08:06:38;97081.53;;;21.16;27.17
41044;BME280;51680;49.806;18.774;2023-03-12T08:09:42;97077.41;;;21.90;26.96
41044;BME280;51680;49.806;18.774;2023-03-12T08:12:44;97068.75;;;22.78;26.02
41044;BME280;51680;49.806;18.774;2023-03-12T08:15:45;97083.31;;;23.48;25.75
41044;BME280;51680;49.806;18.774;2023-03-12T08:18:48;97074.81;;;24.09;24.71
41044;BME280;51680;49.806;18.774;2023-03-12T08:21:50;97080.38;;;23.29;24.68
41044;BME280;51680;49.806;18.774;2023-03-12T08:24:53;97089.75;;;22.73;25.45
41044;BME280;51680;49.806;18.774;2023-03-12T08:27:55;97088.00;;;23.32;25.28
41044;BME280;51680;49.806;18.774;2023-03-12T08:30:58;97084.94;;;23.64;24.27
41044;BME280;51680;49.806;18.774;2023-03-12T08:34:02;97083.47;;;23.18;24.48
41044;BME280;51680;49.806;18.774;2023-03-12T08:37:23;97083.06;;;22.77;24.76
41044;BME280;51680;49.806;18.774;2023-03-12T08:40:24;97083.91;;;22.33;25.68
41044;BME280;51680;49.806;18.774;2023-03-12T08:43:27;97080.28;;;22.71;25.58
41044;BME280;51680;49.806;18.774;2023-03-12T08:46:29;97074.88;;;23.80;24.61
41044;BME280;51680;49.806;18.774;2023-03-12T08:49:32;97069.38;;;24.38;23.83
41044;BME280;51680;49.806;18.774;2023-03-12T08:52:33;97076.59;;;23.38;24.75
41044;BME280;51680;49.806;18.774;2023-03-12T08:55:35;97072.63;;;23.05;24.87
41044;BME280;51680;49.806;18.774;2023-03-12T08:58:37;97078.81;;;23.20;24.83
41044;BME280;51680;49.806;18.774;2023-03-12T09:01:39;97071.81;;;22.08;24.99
41044;BME280;51680;49.806;18.774;2023-03-12T09:04:46;97067.06;;;21.95;24.16
41044;BME280;51680;49.806;18.774;2023-03-12T09:07:48;97074.47;;;22.08;25.74
41044;BME280;51680;49.806;18.774;2023-03-12T09:10:49;97075.56;;;21.91;25.19
41044;BME280;51680;49.806;18.774;2023-03-12T09:13:51;97081.13;;;21.81;25.42
41044;BME280;51680;49.806;18.774;2023-03-12T09:16:53;97082.28;;;21.79;25.32
41044;BME280;51680;49.806;18.774;2023-03-12T09:19:56;97082.16;;;21.72;24.81
41044;BME280;51680;49.806;18.774;2023-03-12T09:22:58;97083.22;;;21.09;26.10
41044;BME280;51680;49.806;18.774;2023-03-12T09:25:59;97077.41;;;21.05;25.86
41044;BME280;51680;49.806;18.774;2023-03-12T09:29:01;97073.47;;;21.78;25.79
41044;BME280;51680;49.806;18.774;2023-03-12T09:32:04;97074.53;;;22.45;24.93
41044;BME280;51680;49.806;18.774;2023-03-12T09:35:07;97078.03;;;22.45;23.76
41044;BME280;51680;49.806;18.774;2023-03-12T09:38:12;97085.41;;;21.82;23.54
41044;BME280;51680;49.806;18.774;2023-03-12T09:41:18;97084.56;;;22.35;24.26
41044;BME280;51680;49.806;18.774;2023-03-12T09:44:27;97087.34;;;23.30;21.52
41044;BME280;51680;49.806;18.774;2023-03-12T09:47:33;97071.81;;;23.98;21.43
41044;BME280;51680;49.806;18.774;2023-03-12T09:50:40;97073.59;;;23.41;22.12
41044;BME280;51680;49.806;18.774;2023-03-12T09:53:46;97079.97;;;23.03;19.93
41044;BME280;51680;49.806;18.774;2023-03-12T09:56:50;97086.06;;;22.74;23.72
41044;BME280;51680;49.806;18.774;2023-03-12T09:59:52;97073.69;;;23.33;23.87
41044;BME280;51680;49.806;18.774;2023-03-12T10:03:09;97068.66;;;22.27;20.69
41044;BME280;51680;49.806;18.774;2023-03-12T10:06:19;97076.63;;;22.04;23.64
41044;BME280;51680;49.806;18.774;2023-03-12T10:09:30;97075.69;;;22.65;22.55
41044;BME280;51680;49.806;18.774;2023-03-12T10:12:44;97061.22;;;24.04;21.61
41044;BME280;51680;49.806;18.774;2023-03-12T10:15:57;97065.06;;;25.13;19.87
41044;BME280;51680;49.806;18.774;2023-03-12T10:19:15;97062.19;;;24.81;19.56
41044;BME280;51680;49.806;18.774;2023-03-12T10:22:32;97069.03;;;24.90;20.59
41044;BME280;51680;49.806;18.774;2023-03-12T10:25:43;97065.22;;;25.33;21.91
41044;BME280;51680;49.806;18.774;2023-03-12T10:29:12;97062.41;;;25.13;20.49
41044;BME280;51680;49.806;18.774;2023-03-12T10:32:19;97067.06;;;24.56;21.17
41044;BME280;51680;49.806;18.774;2023-03-12T10:35:24;97061.41;;;23.67;22.83
41044;BME280;51680;49.806;18.774;2023-03-12T10:38:28;97074.91;;;22.93;23.26
41044;BME280;51680;49.806;18.774;2023-03-12T10:41:31;97070.06;;;23.26;24.01
41044;BME280;51680;49.806;18.774;2023-03-12T10:44:33;97060.41;;;23.68;23.38
41044;BME280;51680;49.806;18.774;2023-03-12T10:47:36;97060.72;;;23.44;23.67
41044;BME280;51680;49.806;18.774;2023-03-12T10:50:39;97069.19;;;22.67;24.36
41044;BME280;51680;49.806;18.774;2023-03-12T10:53:43;97064.06;;;21.29;24.70
41044;BME280;51680;49.806;18.774;2023-03-12T10:56:48;97064.38;;;20.08;26.15
41044;BME280;51680;49.806;18.774;2023-03-12T10:59:50;97082.22;;;18.56;27.03
41044;BME280;51680;49.806;18.774;2023-03-12T11:02:58;97073.88;;;17.45;26.78
41044;BME280;51680;49.806;18.774;2023-03-12T11:06:02;97074.41;;;16.39;29.49
41044;BME280;51680;49.806;18.774;2023-03-12T11:09:12;97077.56;;;15.57;30.27
41044;BME280;51680;49.806;18.774;2023-03-12T11:12:22;97076.06;;;14.85;29.00
41044;BME280;51680;49.806;18.774;2023-03-12T11:15:26;97078.41;;;14.17;31.38
41044;BME280;51680;49.806;18.774;2023-03-12T11:18:33;97079.84;;;13.69;31.63
41044;BME280;51680;49.806;18.774;2023-03-12T11:21:38;97078.53;;;13.21;32.59
41044;BME280;51680;49.806;18.774;2023-03-12T11:24:55;97079.13;;;12.81;31.23
41044;BME280;51680;49.806;18.774;2023-03-12T11:27:59;97075.75;;;12.46;33.52
41044;BME280;51680;49.806;18.774;2023-03-12T11:31:01;97086.13;;;12.02;32.18
41044;BME280;51680;49.806;18.774;2023-03-12T11:34:06;97071.28;;;11.79;34.43
41044;BME280;51680;49.806;18.774;2023-03-12T11:37:22;97076.84;;;11.63;34.79
41044;BME280;51680;49.806;18.774;2023-03-12T11:40:48;97080.91;;;11.31;34.45
41044;BME280;51680;49.806;18.774;2023-03-12T11:44:01;97074.28;;;11.15;35.01
41044;BME280;51680;49.806;18.774;2023-03-12T11:47:17;97075.97;;;11.03;34.79
41044;BME280;51680;49.806;18.774;2023-03-12T11:50:34;97066.69;;;10.99;35.32
41044;BME280;51680;49.806;18.774;2023-03-12T11:53:53;97074.31;;;11.02;36.18
41044;BME280;51680;49.806;18.774;2023-03-12T11:57:02;97078.25;;;11.08;35.03
41044;BME280;51680;49.806;18.774;2023-03-12T12:00:13;97083.47;;;11.08;35.49
41044;BME280;51680;49.806;18.774;2023-03-12T12:06:52;97093.34;;;10.92;36.20
41044;BME280;51680;49.806;18.774;2023-03-12T12:10:02;97083.13;;;10.76;35.76
41044;BME280;51680;49.806;18.774;2023-03-12T12:13:12;97085.47;;;10.56;35.68
41044;BME280;51680;49.806;18.774;2023-03-12T12:16:23;97073.66;;;10.50;35.98
41044;BME280;51680;49.806;18.774;2023-03-12T12:19:38;97067.06;;;10.45;34.43
41044;BME280;51680;49.806;18.774;2023-03-12T12:22:52;97070.00;;;10.40;35.20
41044;BME280;51680;49.806;18.774;2023-03-12T12:26:04;97076.88;;;10.16;35.76
41044;BME280;51680;49.806;18.774;2023-03-12T12:29:27;97081.88;;;10.19;35.67
41044;BME280;51680;49.806;18.774;2023-03-12T12:32:42;97070.06;;;10.01;34.43
41044;BME280;51680;49.806;18.774;2023-03-12T12:35:51;97069.63;;;9.82;35.79
41044;BME280;51680;49.806;18.774;2023-03-12T12:38:55;97074.75;;;9.96;36.59
41044;BME280;51680;49.806;18.774;2023-03-12T12:42:03;97063.16;;;10.00;35.56
41044;BME280;51680;49.806;18.774;2023-03-12T12:45:11;97074.06;;;9.80;35.20
41044;BME280;51680;49.806;18.774;2023-03-12T12:48:17;97077.63;;;9.79;35.65
41044;BME280;51680;49.806;18.774;2023-03-12T12:51:25;97073.28;;;9.92;35.45
41044;BME280;51680;49.806;18.774;2023-03-12T12:54:33;97074.59;;;9.85;35.17
41044;BME280;51680;49.806;18.774;2023-03-12T12:57:41;97074.59;;;9.73;36.38
41044;BME280;51680;49.806;18.774;2023-03-12T13:00:47;97072.47;;;9.65;37.03
41044;BME280;51680;49.806;18.774;2023-03-12T13:03:50;97072.81;;;9.73;37.74
41044;BME280;51680;49.806;18.774;2023-03-12T13:06:58;97075.84;;;9.67;37.94
41044;BME280;51680;49.806;18.774;2023-03-12T13:10:40;97074.59;;;9.46;35.73
41044;BME280;51680;49.806;18.774;2023-03-12T13:13:43;97083.38;;;9.45;38.00
41044;BME280;51680;49.806;18.774;2023-03-12T13:16:47;97068.69;;;9.44;38.16
41044;BME280;51680;49.806;18.774;2023-03-12T13:19:49;97080.63;;;9.34;38.39
41044;BME280;51680;49.806;18.774;2023-03-12T13:22:58;97073.66;;;9.47;38.54
41044;BME280;51680;49.806;18.774;2023-03-12T13:26:07;97071.69;;;9.38;39.38
41044;BME280;51680;49.806;18.774;2023-03-12T13:29:21;97060.59;;;9.35;39.09
41044;BME280;51680;49.806;18.774;2023-03-12T13:33:04;97074.13;;;9.27;39.25
41044;BME280;51680;49.806;18.774;2023-03-12T13:36:18;97062.44;;;9.20;39.54
41044;BME280;51680;49.806;18.774;2023-03-12T13:39:28;97074.38;;;9.10;38.87
41044;BME280;51680;49.806;18.774;2023-03-12T13:42:37;97079.28;;;9.15;39.27
41044;BME280;51680;49.806;18.774;2023-03-12T13:45:41;97077.75;;;9.25;39.61
41044;BME280;51680;49.806;18.774;2023-03-12T13:48:59;97077.78;;;9.11;39.33
41044;BME280;51680;49.806;18.774;2023-03-12T13:52:17;97068.34;;;8.96;37.58
41044;BME280;51680;49.806;18.774;2023-03-12T13:55:24;97076.06;;;8.97;38.42
41044;BME280;51680;49.806;18.774;2023-03-12T13:58:27;97091.69;;;8.83;38.55
41044;BME280;51680;49.806;18.774;2023-03-12T14:01:30;97090.59;;;8.87;38.89
41044;BME280;51680;49.806;18.774;2023-03-12T14:04:36;97090.84;;;8.83;38.90
41044;BME280;51680;49.806;18.774;2023-03-12T14:08:00;97086.69;;;8.80;39.05
41044;BME280;51680;49.806;18.774;2023-03-12T14:11:22;97085.38;;;8.87;38.72
41044;BME280;51680;49.806;18.774;2023-03-12T14:14:49;97086.50;;;8.69;36.78
41044;BME280;51680;49.806;18.774;2023-03-12T14:17:58;97094.06;;;8.60;38.18
41044;BME280;51680;49.806;18.774;2023-03-12T14:21:07;97094.13;;;8.58;38.29
41044;BME280;51680;49.806;18.774;2023-03-12T14:24:22;97108.09;;;8.57;38.66
41044;BME280;51680;49.806;18.774;2023-03-12T14:27:28;97114.09;;;8.58;38.82
41044;BME280;51680;49.806;18.774;2023-03-12T14:30:40;97101.00;;;8.59;38.47
41044;BME280;51680;49.806;18.774;2023-03-12T14:33:50;97092.66;;;8.54;38.58
41044;BME280;51680;49.806;18.774;2023-03-12T14:37:00;97093.13;;;8.61;38.50
41044;BME280;51680;49.806;18.774;2023-03-12T14:40:07;97095.81;;;8.45;38.37
41044;BME280;51680;49.806;18.774;2023-03-12T14:43:38;97103.22;;;8.37;39.03
41044;BME280;51680;49.806;18.774;2023-03-12T14:46:45;97095.41;;;8.37;39.22
41044;BME280;51680;49.806;18.774;2023-03-12T14:49:47;97094.50;;;8.24;39.72
41044;BME280;51680;49.806;18.774;2023-03-12T14:52:50;97094.28;;;8.27;40.04
41044;BME280;51680;49.806;18.774;2023-03-12T14:56:03;97094.53;;;8.09;39.22
41044;BME280;51680;49.806;18.774;2023-03-12T14:59:20;97096.94;;;7.98;39.52
41044;BME280;51680;49.806;18.774;2023-03-12T15:02:24;97094.09;;;7.87;40.51
41044;BME280;51680;49.806;18.774;2023-03-12T15:05:26;97077.13;;;7.81;40.02
41044;BME280;51680;49.806;18.774;2023-03-12T15:08:30;97080.38;;;7.85;40.21
41044;BME280;51680;49.806;18.774;2023-03-12T15:11:36;97084.72;;;7.84;40.59
41044;BME280;51680;49.806;18.774;2023-03-12T15:14:39;97091.94;;;7.79;40.24
41044;BME280;51680;49.806;18.774;2023-03-12T15:17:42;97100.66;;;7.78;40.87
41044;BME280;51680;49.806;18.774;2023-03-12T15:20:44;97092.78;;;7.80;40.29
41044;BME280;51680;49.806;18.774;2023-03-12T15:23:48;97099.34;;;7.71;40.72
41044;BME280;51680;49.806;18.774;2023-03-12T15:26:50;97095.69;;;7.60;41.29
41044;BME280;51680;49.806;18.774;2023-03-12T15:29:52;97094.19;;;7.56;41.62
41044;BME280;51680;49.806;18.774;2023-03-12T15:33:08;97100.41;;;7.53;40.77
41044;BME280;51680;49.806;18.774;2023-03-12T15:36:22;97098.91;;;7.49;41.16
41044;BME280;51680;49.806;18.774;2023-03-12T15:39:27;97090.53;;;7.44;42.07
41044;BME280;51680;49.806;18.774;2023-03-12T15:42:35;97088.09;;;7.41;41.80
41044;BME280;51680;49.806;18.774;2023-03-12T15:45:39;97088.38;;;7.37;42.25
41044;BME280;51680;49.806;18.774;2023-03-12T15:48:46;97080.16;;;7.29;42.44
41044;BME280;51680;49.806;18.774;2023-03-12T15:52:05;97082.25;;;7.38;42.34
41044;BME280;51680;49.806;18.774;2023-03-12T15:55:22;97073.00;;;7.48;41.70
41044;BME280;51680;49.806;18.774;2023-03-12T15:58:26;97078.28;;;7.46;42.00
41044;BME280;51680;49.806;18.774;2023-03-12T16:01:29;97080.88;;;7.46;42.07
41044;BME280;51680;49.806;18.774;2023-03-12T16:04:30;97081.88;;;7.44;42.10
41044;BME280;51680;49.806;18.774;2023-03-12T16:07:32;97076.41;;;7.34;42.34
41044;BME280;51680;49.806;18.774;2023-03-12T16:10:37;97081.50;;;7.36;41.87
41044;BME280;51680;49.806;18.774;2023-03-12T16:13:39;97076.97;;;7.39;42.79
41044;BME280;51680;49.806;18.774;2023-03-12T16:16:41;97088.88;;;7.43;42.14
41044;BME280;51680;49.806;18.774;2023-03-12T16:19:43;97075.88;;;7.43;42.32